createdAt,value
2022-12-20T00:02:20.830Z,37.64
2022-12-20T00:04:48.534Z,37.57
2022-12-20T00:07:16.204Z,37.64
2022-12-20T00:09:44.155Z,37.56
2022-12-20T00:12:11.801Z,37.58
2022-12-20T00:14:40.871Z,37.79
2022-12-20T00:17:08.531Z,37.62
2022-12-20T00:19:36.118Z,37.81
2022-12-20T00:22:03.846Z,37.82
2022-12-20T00:24:33.003Z,37.79
2022-12-20T00:27:00.618Z,37.75
2022-12-20T00:29:28.220Z,37.71
2022-12-20T00:31:57.336Z,37.82
2022-12-20T00:34:25.078Z,37.73
2022-12-20T00:36:52.754Z,37.84
2022-12-20T00:39:20.482Z,37.77
2022-12-20T00:41:48.115Z,37.91
2022-12-20T00:44:15.761Z,38.00
2022-12-20T00:46:43.673Z,38.00
2022-12-20T00:49:12.717Z,37.89
2022-12-20T00:51:40.370Z,37.81
2022-12-20T00:54:08.061Z,37.88
2022-12-20T00:56:35.644Z,37.82
2022-12-20T00:59:03.297Z,37.99
2022-12-20T01:01:31.781Z,37.89
2022-12-20T01:03:59.739Z,37.93
2022-12-20T01:06:28.770Z,37.93
2022-12-20T01:08:56.397Z,38.00
2022-12-20T01:11:24.223Z,37.85
2022-12-20T01:13:53.254Z,37.84
2022-12-20T01:16:21.665Z,37.98
2022-12-20T01:18:49.391Z,38.10
2022-12-20T01:21:17.820Z,38.04
2022-12-20T01:23:47.095Z,38.00
2022-12-20T01:26:15.245Z,38.08
2022-12-20T01:28:43.253Z,38.04
2022-12-20T01:31:11.373Z,38.09
2022-12-20T01:33:39.091Z,38.10
2022-12-20T01:36:07.347Z,37.83
2022-12-20T01:38:35.236Z,37.92
2022-12-20T01:41:04.279Z,38.11
2022-12-20T01:43:45.854Z,37.95
2022-12-20T01:46:13.440Z,38.06
2022-12-20T01:48:41.269Z,37.89
2022-12-20T01:51:08.848Z,37.96
2022-12-20T01:53:36.621Z,38.15
2022-12-20T01:56:06.227Z,37.96
2022-12-20T01:58:33.899Z,38.02
2022-12-20T02:01:01.576Z,38.09
2022-12-20T02:03:29.317Z,37.98
2022-12-20T02:05:56.992Z,38.02
2022-12-20T02:08:24.638Z,38.03
2022-12-20T02:11:03.329Z,38.17
2022-12-20T02:13:35.040Z,38.13
2022-12-20T02:16:02.656Z,38.10
2022-12-20T02:18:30.683Z,38.02
2022-12-20T02:21:09.762Z,38.06
2022-12-20T02:23:56.048Z,38.00
2022-12-20T02:26:33.029Z,38.19
2022-12-20T02:29:16.446Z,38.09
2022-12-20T02:31:47.126Z,38.21
2022-12-20T02:34:15.129Z,38.24
2022-12-20T02:36:43.051Z,38.16
2022-12-20T02:39:12.180Z,38.24
2022-12-20T02:41:40.279Z,38.08
2022-12-20T02:44:26.148Z,38.23
2022-12-20T02:46:55.173Z,38.18
2022-12-20T02:49:23.392Z,38.05
2022-12-20T02:51:51.581Z,38.30
2022-12-20T02:54:20.309Z,38.15
2022-12-20T02:56:49.904Z,38.33
2022-12-20T02:59:19.125Z,38.19
2022-12-20T03:01:47.115Z,38.23
2022-12-20T03:04:16.320Z,38.23
2022-12-20T03:06:56.877Z,38.31
2022-12-20T03:09:24.534Z,38.19
2022-12-20T03:11:52.442Z,38.28
2022-12-20T03:14:20.171Z,38.30
2022-12-20T03:16:49.762Z,38.29
2022-12-20T03:19:18.773Z,38.19
2022-12-20T03:21:46.617Z,38.22
2022-12-20T03:24:14.580Z,38.22
2022-12-20T03:26:42.404Z,38.24
2022-12-20T03:29:10.577Z,38.21
2022-12-20T03:31:38.461Z,38.24
2022-12-20T03:34:06.477Z,38.27
2022-12-20T03:36:37.546Z,38.20
2022-12-20T03:39:06.137Z,38.25
2022-12-20T03:41:37.799Z,38.43
2022-12-20T03:44:06.513Z,38.42
2022-12-20T03:46:34.194Z,38.27
2022-12-20T03:49:01.964Z,38.24
2022-12-20T03:51:30.194Z,38.39
2022-12-20T03:53:59.531Z,38.48
2022-12-20T03:56:43.540Z,38.33
2022-12-20T03:59:11.584Z,38.24
2022-12-20T04:01:39.381Z,38.27
2022-12-20T04:04:08.312Z,38.43
2022-12-20T04:06:35.906Z,38.35
2022-12-20T04:09:04.981Z,38.34
2022-12-20T04:11:40.539Z,38.44
2022-12-20T04:14:14.796Z,38.47
2022-12-20T04:16:42.654Z,38.48
2022-12-20T04:19:11.937Z,38.47
2022-12-20T04:21:45.853Z,38.45
2022-12-20T04:24:16.414Z,38.39
2022-12-20T04:26:53.955Z,38.65
2022-12-20T04:29:21.591Z,38.59
2022-12-20T04:31:50.371Z,38.49
2022-12-20T04:34:18.835Z,38.60
2022-12-20T04:36:46.551Z,38.48
2022-12-20T04:39:22.475Z,38.40
2022-12-20T04:42:10.403Z,38.59
2022-12-20T04:44:39.180Z,38.39
2022-12-20T04:47:07.062Z,38.54
2022-12-20T04:49:34.810Z,38.51
2022-12-20T04:52:22.492Z,38.48
2022-12-20T04:54:51.127Z,38.60
2022-12-20T04:57:24.720Z,38.66
2022-12-20T04:59:52.562Z,38.51
2022-12-20T05:02:20.322Z,38.63
2022-12-20T05:05:03.530Z,38.65
2022-12-20T05:07:36.527Z,38.65
2022-12-20T05:10:06.137Z,38.67
2022-12-20T05:12:34.086Z,38.69
2022-12-20T05:15:04.674Z,38.67
2022-12-20T05:17:32.488Z,38.59
2022-12-20T05:20:00.698Z,38.71
2022-12-20T05:22:43.927Z,38.56
2022-12-20T05:25:31.858Z,38.62
2022-12-20T05:28:03.845Z,38.72
2022-12-20T05:30:35.283Z,38.54
2022-12-20T05:33:03.480Z,38.71
2022-12-20T05:35:32.200Z,38.59
2022-12-20T05:38:07.391Z,38.75
2022-12-20T05:40:37.578Z,38.66
2022-12-20T05:43:06.219Z,38.75
2022-12-20T05:45:41.997Z,38.52
2022-12-20T05:48:15.060Z,38.80
2022-12-20T05:50:45.134Z,38.74
2022-12-20T05:53:26.550Z,38.59
2022-12-20T05:55:58.559Z,38.79
2022-12-20T05:58:30.350Z,38.71
2022-12-20T06:01:03.043Z,38.77
2022-12-20T06:03:34.397Z,38.71
2022-12-20T06:06:10.156Z,38.81
2022-12-20T06:08:41.585Z,38.76
2022-12-20T06:11:13.570Z,38.68
2022-12-20T06:13:51.957Z,38.70
2022-12-20T06:16:21.817Z,38.75
2022-12-20T06:18:50.004Z,38.89
2022-12-20T06:21:18.445Z,38.70
2022-12-20T06:23:46.493Z,38.79
2022-12-20T06:26:16.742Z,38.80
2022-12-20T06:28:52.677Z,38.73
2022-12-20T06:31:35.367Z,38.92
2022-12-20T06:34:03.118Z,38.91
2022-12-20T06:36:35.404Z,38.89
2022-12-20T06:39:09.293Z,38.70
2022-12-20T06:41:42.430Z,38.82
2022-12-20T06:44:10.123Z,38.82
2022-12-20T06:46:37.840Z,38.99
2022-12-20T06:49:05.486Z,38.92
2022-12-20T06:51:33.635Z,38.89
2022-12-20T06:54:02.139Z,38.99
2022-12-20T06:56:39.206Z,38.82
2022-12-20T06:59:12.090Z,38.79
2022-12-20T07:01:39.836Z,38.87
2022-12-20T07:04:07.591Z,38.89
2022-12-20T07:06:35.146Z,39.05
2022-12-20T07:09:02.772Z,38.91
2022-12-20T07:11:30.437Z,39.05
2022-12-20T07:13:58.255Z,38.94
2022-12-20T07:16:27.453Z,38.88
2022-12-20T07:18:55.369Z,38.98
2022-12-20T07:21:23.033Z,38.84
2022-12-20T07:23:50.682Z,38.92
2022-12-20T07:26:18.330Z,39.10
2022-12-20T07:28:45.929Z,39.10
2022-12-20T07:31:13.626Z,39.06
2022-12-20T07:33:42.604Z,39.17
2022-12-20T07:36:12.525Z,39.19
2022-12-20T07:38:40.273Z,38.97
2022-12-20T07:41:08.389Z,39.15
2022-12-20T07:43:36.203Z,39.21
2022-12-20T07:46:04.939Z,39.02
2022-12-20T07:48:32.671Z,39.13
2022-12-20T07:51:02.456Z,39.10
2022-12-20T07:53:30.224Z,39.02
2022-12-20T07:55:57.969Z,39.24
2022-12-20T07:58:25.687Z,39.23
2022-12-20T08:00:53.555Z,39.23
2022-12-20T08:03:22.003Z,39.20
2022-12-20T08:05:50.958Z,39.23
2022-12-20T08:08:20.532Z,39.25
2022-12-20T08:10:48.315Z,39.27
2022-12-20T08:13:15.964Z,39.18
2022-12-20T08:15:43.773Z,39.35
2022-12-20T08:18:11.350Z,39.11
2022-12-20T08:20:39.016Z,39.42
2022-12-20T08:23:06.670Z,39.39
2022-12-20T08:25:41.549Z,39.32
2022-12-20T08:28:09.804Z,39.34
2022-12-20T08:30:37.473Z,39.21
2022-12-20T08:33:05.605Z,39.43
2022-12-20T08:35:33.212Z,39.38
2022-12-20T08:38:01.096Z,39.34
2022-12-20T08:40:28.758Z,39.44
2022-12-20T08:42:58.134Z,39.27
2022-12-20T08:45:25.941Z,39.45
2022-12-20T08:47:54.711Z,39.23
2022-12-20T08:50:22.457Z,39.43
2022-12-20T08:52:50.152Z,39.23
2022-12-20T08:55:22.004Z,39.25
2022-12-20T08:57:52.343Z,39.40
2022-12-20T09:00:21.764Z,39.29
2022-12-20T09:02:51.802Z,39.47
2022-12-20T09:05:19.834Z,39.34
2022-12-20T09:07:47.642Z,39.39
2022-12-20T09:10:15.528Z,39.52
2022-12-20T09:12:43.340Z,39.57
2022-12-20T09:15:11.522Z,39.45
2022-12-20T09:17:40.480Z,39.58
2022-12-20T09:20:08.669Z,39.31
2022-12-20T09:22:36.253Z,39.38
2022-12-20T09:25:03.907Z,39.53
2022-12-20T09:27:31.534Z,39.40
2022-12-20T09:29:59.124Z,39.46
2022-12-20T09:32:26.769Z,39.50
2022-12-20T09:34:56.089Z,39.59
2022-12-20T09:37:23.664Z,39.63
2022-12-20T09:39:51.703Z,39.42
2022-12-20T09:42:20.210Z,39.74
2022-12-20T09:44:47.880Z,39.63
2022-12-20T09:47:16.643Z,39.56
2022-12-20T09:49:45.292Z,39.64
2022-12-20T09:52:20.877Z,39.69
2022-12-20T09:54:50.412Z,39.61
2022-12-20T09:57:19.257Z,39.66
2022-12-20T09:59:49.730Z,39.89
2022-12-20T10:02:55.227Z,39.88
2022-12-20T10:05:07.316Z,39.83
2022-12-20T10:07:36.967Z,39.83
2022-12-20T10:10:09.807Z,40.02
2022-12-20T10:12:40.573Z,39.78
2022-12-20T10:15:26.062Z,39.88
2022-12-20T10:18:03.672Z,39.90
2022-12-20T10:20:33.937Z,39.83
2022-12-20T10:23:04.063Z,39.76
2022-12-20T10:25:32.296Z,39.98
2022-12-20T10:28:01.702Z,39.91
2022-12-20T10:30:29.424Z,39.74
2022-12-20T10:32:57.321Z,40.00
2022-12-20T10:35:25.925Z,39.85
2022-12-20T10:38:07.026Z,40.02
2022-12-20T10:43:26.102Z,40.00
2022-12-20T10:45:57.767Z,39.83
2022-12-20T10:48:27.381Z,39.90
2022-12-20T10:50:58.721Z,40.09
2022-12-20T10:53:27.336Z,39.94
2022-12-20T10:56:08.463Z,39.90
2022-12-20T10:58:36.499Z,40.04
2022-12-20T11:01:05.105Z,40.02
2022-12-20T11:03:32.954Z,40.23
2022-12-20T11:06:02.368Z,40.02
2022-12-20T11:08:39.065Z,40.20
2022-12-20T11:11:16.402Z,40.11
2022-12-20T11:13:44.809Z,40.05
2022-12-20T11:16:30.129Z,40.25
2022-12-20T11:19:01.722Z,40.25
2022-12-20T11:21:31.374Z,40.20
2022-12-20T11:24:01.131Z,40.28
2022-12-20T11:26:33.039Z,40.28
2022-12-20T11:29:04.743Z,40.30
2022-12-20T11:31:36.203Z,40.30
2022-12-20T11:34:04.934Z,40.20
2022-12-20T11:36:36.645Z,40.42
2022-12-20T11:39:06.044Z,40.36
2022-12-20T11:41:37.147Z,40.43
2022-12-20T11:44:25.778Z,40.37
2022-12-20T11:46:59.133Z,40.31
2022-12-20T11:49:44.551Z,40.45
2022-12-20T11:52:14.407Z,40.39
2022-12-20T11:54:42.650Z,40.35
2022-12-20T11:57:14.953Z,40.45
2022-12-20T11:59:43.820Z,40.41
2022-12-20T12:02:12.774Z,40.47
2022-12-20T12:04:41.478Z,40.21
2022-12-20T12:07:09.878Z,40.44
2022-12-20T12:09:37.836Z,40.27
2022-12-20T12:12:08.564Z,40.22
2022-12-20T12:14:43.377Z,40.30
2022-12-20T12:17:13.473Z,40.21
2022-12-20T12:19:42.361Z,40.26
2022-12-20T12:22:12.152Z,40.38
2022-12-20T12:24:40.057Z,40.31
2022-12-20T12:27:15.786Z,40.21
2022-12-20T12:29:45.284Z,40.41
2022-12-20T12:32:15.909Z,40.24
2022-12-20T12:34:47.731Z,40.57
2022-12-20T12:37:23.007Z,40.48
2022-12-20T12:40:01.424Z,40.52
2022-12-20T12:42:50.046Z,40.41
2022-12-20T12:45:19.720Z,40.49
2022-12-20T12:47:49.285Z,40.35
2022-12-20T12:50:23.578Z,40.29
2022-12-20T12:52:51.760Z,40.52
2022-12-20T12:55:38.107Z,40.54
2022-12-20T12:58:15.969Z,40.56
2022-12-20T13:00:51.504Z,40.57
2022-12-20T13:03:37.274Z,40.46
2022-12-20T13:06:19.809Z,40.54
2022-12-20T13:08:50.880Z,40.45
2022-12-20T13:11:29.655Z,40.54
2022-12-20T13:14:12.395Z,40.69
2022-12-20T13:17:10.731Z,40.68
2022-12-20T13:19:32.353Z,40.75
2022-12-20T13:22:00.136Z,40.98
2022-12-20T13:24:30.181Z,40.72
2022-12-20T13:26:57.878Z,40.68
2022-12-20T13:29:26.173Z,40.92
2022-12-20T13:31:55.790Z,40.86
2022-12-20T13:34:39.846Z,40.75
2022-12-20T13:37:22.320Z,40.90
2022-12-20T13:39:49.915Z,41.00
2022-12-20T13:42:20.165Z,40.86
2022-12-20T13:44:47.794Z,40.86
2022-12-20T13:47:24.801Z,40.84
2022-12-20T13:49:52.686Z,40.86
2022-12-20T13:52:28.813Z,40.81
2022-12-20T13:54:57.159Z,40.88
2022-12-20T13:57:28.249Z,40.79
2022-12-20T14:00:01.931Z,41.02
2022-12-20T14:02:36.472Z,40.97
2022-12-20T14:05:05.311Z,40.81
2022-12-20T14:07:32.970Z,40.83
2022-12-20T14:10:00.870Z,41.01
2022-12-20T14:12:35.975Z,40.94
2022-12-20T14:15:04.567Z,41.04
2022-12-20T14:17:32.717Z,40.90
2022-12-20T14:20:21.186Z,40.91
2022-12-20T14:22:51.673Z,40.78
2022-12-20T14:25:30.518Z,40.95
2022-12-20T14:27:58.470Z,41.06
2022-12-20T14:30:30.233Z,40.81
2022-12-20T14:32:57.999Z,40.90
2022-12-20T14:35:25.649Z,40.91
2022-12-20T14:37:58.104Z,40.89
2022-12-20T14:40:25.659Z,41.01
2022-12-20T14:42:53.301Z,40.95
2022-12-20T14:45:22.169Z,40.91
2022-12-20T14:47:50.438Z,41.04
2022-12-20T14:50:18.921Z,40.91
2022-12-20T14:52:46.594Z,40.98
2022-12-20T14:55:17.480Z,40.98
2022-12-20T14:57:48.959Z,40.92
2022-12-20T15:00:21.233Z,40.88
2022-12-20T15:02:51.186Z,41.08
2022-12-20T15:05:38.701Z,40.99
2022-12-20T15:08:16.730Z,40.88
2022-12-20T15:10:48.512Z,40.92
2022-12-20T15:13:16.222Z,40.99
2022-12-20T15:15:43.941Z,41.03
2022-12-20T15:18:12.368Z,40.99
2022-12-20T15:20:40.236Z,41.10
2022-12-20T15:23:10.064Z,41.12
2022-12-20T15:25:43.152Z,41.05
2022-12-20T15:28:18.769Z,40.94
2022-12-20T15:30:47.792Z,40.92
2022-12-20T15:33:19.105Z,41.04
2022-12-20T15:35:47.013Z,41.03
2022-12-20T15:38:16.423Z,41.04
2022-12-20T15:40:44.615Z,41.08
2022-12-20T15:43:15.579Z,41.03
2022-12-20T15:45:44.999Z,41.11
2022-12-20T15:48:14.186Z,41.32
2022-12-20T15:50:42.186Z,41.27
2022-12-20T15:53:10.705Z,41.28
2022-12-20T15:55:40.253Z,41.21
2022-12-20T15:58:07.991Z,41.39
2022-12-20T16:00:35.591Z,41.11
2022-12-20T16:03:04.876Z,41.35
2022-12-20T16:05:32.676Z,41.18
2022-12-20T16:08:00.624Z,41.27
2022-12-20T16:10:29.060Z,41.27
2022-12-20T16:12:56.704Z,41.13
2022-12-20T16:15:24.572Z,41.29
2022-12-20T16:17:52.204Z,41.38
2022-12-20T16:20:21.328Z,41.19
2022-12-20T16:22:49.164Z,41.24
2022-12-20T16:25:21.927Z,41.28
2022-12-20T16:27:49.531Z,41.30
2022-12-20T16:30:18.108Z,41.09
2022-12-20T16:32:45.794Z,41.02
2022-12-20T16:35:16.505Z,41.13
2022-12-20T16:37:45.591Z,40.99
2022-12-20T16:40:15.522Z,41.24
2022-12-20T16:42:43.075Z,41.07
2022-12-20T16:45:13.077Z,41.24
2022-12-20T16:47:40.932Z,41.09
2022-12-20T16:50:09.257Z,41.17
2022-12-20T16:52:37.595Z,41.16
2022-12-20T16:55:07.080Z,41.05
2022-12-20T16:57:34.890Z,41.09
2022-12-20T17:00:02.574Z,41.19
2022-12-20T17:02:30.913Z,41.24
2022-12-20T17:04:58.689Z,41.23
2022-12-20T17:07:26.326Z,41.13
2022-12-20T17:10:11.889Z,41.25
2022-12-20T17:12:40.884Z,41.15
2022-12-20T17:15:11.018Z,41.00
2022-12-20T17:17:38.658Z,41.11
2022-12-20T17:20:06.765Z,41.10
2022-12-20T17:22:34.366Z,41.11
2022-12-20T17:25:01.974Z,41.08
2022-12-20T17:27:29.664Z,41.17
2022-12-20T17:29:58.822Z,41.08
2022-12-20T17:32:26.664Z,41.09
2022-12-20T17:34:54.357Z,41.07
2022-12-20T17:37:22.324Z,41.05
2022-12-20T17:39:50.324Z,41.04
2022-12-20T17:42:17.885Z,41.21
2022-12-20T17:44:46.058Z,41.05
2022-12-20T17:47:16.914Z,41.00
2022-12-20T17:49:44.628Z,41.15
2022-12-20T17:52:13.712Z,41.16
2022-12-20T17:54:41.284Z,41.12
2022-12-20T17:57:12.821Z,41.04
2022-12-20T17:59:40.425Z,41.00
2022-12-20T18:02:12.457Z,40.99
2022-12-20T18:04:43.977Z,41.16
2022-12-20T18:07:11.780Z,41.17
2022-12-20T18:09:39.453Z,41.03
2022-12-20T18:12:07.249Z,41.22
2022-12-20T18:14:35.590Z,41.06
2022-12-20T18:17:03.771Z,41.13
2022-12-20T18:19:32.018Z,41.18
2022-12-20T18:22:01.492Z,41.15
2022-12-20T18:24:29.388Z,41.16
2022-12-20T18:26:57.422Z,41.13
2022-12-20T18:29:25.241Z,41.07
2022-12-20T18:31:53.494Z,41.22
2022-12-20T18:34:21.414Z,41.04
2022-12-20T18:36:49.313Z,41.14
2022-12-20T18:39:20.665Z,41.11
2022-12-20T18:41:48.830Z,41.23
2022-12-20T18:44:16.615Z,41.16
2022-12-20T18:46:44.518Z,41.22
2022-12-20T18:49:12.610Z,41.09
2022-12-20T18:51:40.361Z,41.09
2022-12-20T18:54:08.347Z,41.17
2022-12-20T18:56:38.236Z,41.22
2022-12-20T18:59:11.282Z,41.12
2022-12-20T19:01:39.616Z,41.10
2022-12-20T19:04:07.893Z,41.20
2022-12-20T19:06:35.686Z,41.11
2022-12-20T19:09:03.494Z,41.28
2022-12-20T19:11:31.159Z,41.01
2022-12-20T19:14:00.227Z,41.09
2022-12-20T19:16:29.411Z,41.21
2022-12-20T19:18:58.501Z,41.14
2022-12-20T19:21:26.652Z,41.07
2022-12-20T19:23:54.658Z,41.14
2022-12-20T19:26:23.201Z,40.98
2022-12-20T19:28:50.872Z,41.21
2022-12-20T19:31:23.605Z,41.13
2022-12-20T19:33:51.917Z,41.21
2022-12-20T19:36:20.497Z,41.00
2022-12-20T19:38:48.563Z,41.08
2022-12-20T19:41:16.195Z,41.13
2022-12-20T19:43:43.779Z,41.13
2022-12-20T19:46:11.508Z,41.06
2022-12-20T19:48:40.467Z,41.19
2022-12-20T19:51:09.977Z,41.25
2022-12-20T19:53:37.897Z,41.06
2022-12-20T19:56:05.712Z,41.27
2022-12-20T19:58:33.487Z,41.26
2022-12-20T20:01:01.181Z,41.12
2022-12-20T20:03:28.971Z,41.25
2022-12-20T20:05:58.062Z,41.16
2022-12-20T20:08:25.765Z,41.11
2022-12-20T20:10:53.628Z,41.29
2022-12-20T20:13:21.336Z,41.32
2022-12-20T20:15:52.128Z,41.09
2022-12-20T20:18:19.882Z,41.41
2022-12-20T20:20:47.517Z,41.30
2022-12-20T20:23:16.493Z,41.34
2022-12-20T20:25:45.544Z,41.24
2022-12-20T20:28:13.071Z,41.18
2022-12-20T20:30:41.230Z,41.31
2022-12-20T20:33:09.085Z,41.25
2022-12-20T20:35:37.017Z,41.23
2022-12-20T20:38:04.578Z,41.35
2022-12-20T20:40:34.391Z,41.31
2022-12-20T20:43:02.117Z,41.39
2022-12-20T20:45:29.769Z,41.27
2022-12-20T20:48:02.555Z,41.36
2022-12-20T20:50:33.190Z,41.43
2022-12-20T20:53:01.232Z,41.25
2022-12-20T20:55:29.190Z,41.38
2022-12-20T20:57:58.335Z,41.36
2022-12-20T21:00:26.272Z,41.40
2022-12-20T21:02:54.311Z,41.29
2022-12-20T21:08:10.187Z,41.41
2022-12-20T21:10:37.935Z,41.38
2022-12-20T21:13:07.439Z,41.30
2022-12-20T21:15:35.102Z,41.28
2022-12-20T21:18:03.020Z,41.42
2022-12-20T21:20:30.658Z,41.39
2022-12-20T21:22:58.327Z,41.38
2022-12-20T21:25:26.040Z,41.42
2022-12-20T21:27:53.883Z,41.26
2022-12-20T21:30:22.905Z,41.50
2022-12-20T21:32:50.590Z,41.42
2022-12-20T21:35:18.318Z,41.42
2022-12-20T21:37:46.108Z,41.36
2022-12-20T21:40:14.794Z,41.35
2022-12-20T21:42:42.462Z,41.47
2022-12-20T21:45:12.026Z,41.31
2022-12-20T21:47:41.335Z,41.30
2022-12-20T21:50:09.351Z,41.30
2022-12-20T21:52:37.419Z,41.44
2022-12-20T21:55:05.285Z,41.35
2022-12-20T21:57:32.870Z,41.33
2022-12-20T22:00:00.569Z,41.46
2022-12-20T22:02:28.267Z,41.44
2022-12-20T22:04:57.405Z,41.32
2022-12-20T22:07:25.042Z,41.50
2022-12-20T22:09:52.687Z,41.41
2022-12-20T22:12:20.304Z,41.37
2022-12-20T22:14:47.925Z,41.34
2022-12-20T22:17:15.837Z,41.39
2022-12-20T22:19:43.848Z,41.36
2022-12-20T22:22:13.333Z,41.51
2022-12-20T22:24:40.941Z,41.43
2022-12-20T22:27:11.569Z,41.38
2022-12-20T22:29:39.669Z,41.32
2022-12-20T22:32:07.461Z,41.35
2022-12-20T22:34:35.409Z,41.35
2022-12-20T22:37:03.045Z,41.51
2022-12-20T22:39:32.038Z,41.48
2022-12-20T22:41:59.857Z,41.27
2022-12-20T22:44:27.469Z,41.56
2022-12-20T22:46:55.081Z,41.41
2022-12-20T22:49:22.722Z,41.38
2022-12-20T22:52:04.306Z,41.48
2022-12-20T22:54:36.603Z,41.56
2022-12-20T22:57:04.321Z,41.41
2022-12-20T22:59:32.604Z,41.53
2022-12-20T23:02:00.748Z,41.51
2022-12-20T23:04:28.601Z,41.59
2022-12-20T23:06:56.253Z,41.54
2022-12-20T23:09:24.858Z,41.55
2022-12-20T23:12:10.901Z,41.45
2022-12-20T23:15:01.755Z,41.35
2022-12-20T23:17:31.355Z,41.40
2022-12-20T23:20:16.250Z,41.47
2022-12-20T23:22:43.839Z,41.56
2022-12-20T23:25:12.540Z,41.43
2022-12-20T23:27:42.219Z,41.42
2022-12-20T23:30:10.548Z,41.49
2022-12-20T23:32:38.183Z,41.49
2022-12-20T23:35:12.146Z,41.54
2022-12-20T23:37:40.414Z,41.66
2022-12-20T23:40:08.569Z,41.57
2022-12-20T23:42:36.235Z,41.38
2022-12-20T23:45:05.628Z,41.70
2022-12-20T23:47:33.431Z,41.66
2022-12-20T23:50:01.046Z,41.56
2022-12-20T23:52:28.632Z,41.66
2022-12-20T23:54:56.285Z,41.62
2022-12-20T23:57:23.905Z,41.63
2022-12-20T23:59:51.651Z,41.66
